Sumter, South Carolina
Current Conditions -  °F | °C
As of 9:15 AM on Thursday 29 Jan 2015 (Local Time) from KSMS Reporting Station
Clear Clear  
Wind Chill: 36°   Ceiling: Unl
Heat Index: 36°   Visibility: 10mi
Dew Point: 30°   Wind: 0mph
Humidity: 81%   Direction: NA
Pressure: 30.38"   Gusts: NA
Location:  33.92°N, 80.34°W
Report Text: KSMS 291415Z AUTO 00000KT 10SM CLR 02/M01 A3038 RMK AO2
Loading
Personal Weather Stations






























Interactive Weather Map New forecast layout! Learn more

10-Day Weather Forecast

Advertisements
Track Severe Weather on mobile